createdAt,value
2017-03-11T00:01:03.171Z,0
2017-03-11T00:02:12.752Z,0
2017-03-11T00:03:22.712Z,0
2017-03-11T00:04:32.678Z,0
2017-03-11T00:05:42.639Z,0
2017-03-11T00:06:52.578Z,0
2017-03-11T00:08:02.443Z,0
2017-03-11T00:09:12.774Z,0
2017-03-11T00:10:22.269Z,0
2017-03-11T00:11:31.822Z,0
2017-03-11T00:12:42.141Z,0
2017-03-11T00:13:51.726Z,0
2017-03-11T00:15:01.672Z,0
2017-03-11T00:16:11.230Z,0
2017-03-11T00:17:21.213Z,0
2017-03-11T00:18:30.347Z,0
2017-03-11T00:19:41.240Z,0
2017-03-11T00:20:50.722Z,0
2017-03-11T00:22:01.423Z,0
2017-03-11T00:23:11.386Z,0
2017-03-11T00:24:21.334Z,0
2017-03-11T00:25:30.896Z,0
2017-03-11T00:26:40.442Z,0
2017-03-11T00:27:50.398Z,0
2017-03-11T00:28:59.985Z,0
2017-03-11T00:30:09.531Z,0
2017-03-11T00:31:18.700Z,0
2017-03-11T00:32:28.651Z,0
2017-03-11T00:33:38.229Z,0
2017-03-11T00:34:48.187Z,0
2017-03-11T00:35:58.145Z,0
2017-03-11T00:37:07.340Z,0
2017-03-11T00:38:17.663Z,0
2017-03-11T00:39:27.175Z,0
2017-03-11T00:40:37.121Z,0
2017-03-11T00:41:46.288Z,0
2017-03-11T00:42:55.846Z,0
2017-03-11T00:44:06.198Z,0
2017-03-11T00:45:15.321Z,0
2017-03-11T00:46:24.498Z,0
2017-03-11T00:47:33.685Z,0
2017-03-11T00:48:43.233Z,0
2017-03-11T00:49:52.723Z,0
2017-03-11T00:51:02.229Z,0
2017-03-11T00:52:12.092Z,0
2017-03-11T00:53:22.032Z,0
2017-03-11T00:54:31.134Z,0
2017-03-11T00:55:40.937Z,0
2017-03-11T00:56:51.275Z,0
2017-03-11T00:58:00.468Z,0
2017-03-11T00:59:10.032Z,0
2017-03-11T01:00:19.231Z,0
2017-03-11T01:01:28.780Z,0
2017-03-11T01:02:38.742Z,0
2017-03-11T01:03:48.625Z,0
2017-03-11T01:04:57.786Z,0
2017-03-11T01:06:07.720Z,0
2017-03-11T01:07:17.642Z,0
2017-03-11T01:08:27.576Z,0
2017-03-11T01:09:37.522Z,0
2017-03-11T01:10:46.710Z,0
2017-03-11T01:11:56.653Z,0
2017-03-11T01:13:05.819Z,0
2017-03-11T01:14:15.378Z,0
2017-03-11T01:15:26.081Z,0
2017-03-11T01:16:36.033Z,0
2017-03-11T01:17:45.544Z,0
2017-03-11T01:18:55.478Z,0
2017-03-11T01:20:05.429Z,0
2017-03-11T01:21:15.770Z,0
2017-03-11T01:22:25.701Z,0
2017-03-11T01:23:35.111Z,0
2017-03-11T01:24:45.134Z,0
2017-03-11T01:25:54.311Z,0
2017-03-11T01:27:04.576Z,0
2017-03-11T01:28:13.746Z,0
2017-03-11T01:29:23.674Z,0
2017-03-11T01:30:32.841Z,0
2017-03-11T01:31:42.068Z,0
2017-03-11T01:32:52.034Z,0
2017-03-11T01:34:01.530Z,0
2017-03-11T01:35:11.122Z,0
2017-03-11T01:36:20.693Z,0
2017-03-11T01:37:29.867Z,0
2017-03-11T01:38:39.432Z,0
2017-03-11T01:39:48.875Z,0
2017-03-11T01:40:58.810Z,0
2017-03-11T01:42:07.973Z,0
2017-03-11T01:43:17.147Z,0
2017-03-11T01:44:26.329Z,0
2017-03-11T01:45:35.489Z,0
2017-03-11T01:46:45.626Z,0
2017-03-11T01:47:55.213Z,0
2017-03-11T01:49:04.403Z,0
2017-03-11T01:50:13.185Z,0
2017-03-11T01:51:22.705Z,0
2017-03-11T01:52:31.891Z,0
2017-03-11T01:53:41.013Z,0
2017-03-11T01:54:50.565Z,0
2017-03-11T01:56:00.484Z,0
2017-03-11T01:57:09.999Z,0
2017-03-11T01:58:20.317Z,0
2017-03-11T01:59:30.249Z,0
2017-03-11T02:00:39.804Z,0
2017-03-11T02:01:49.006Z,0
2017-03-11T02:02:58.866Z,0
2017-03-11T02:04:08.441Z,0
2017-03-11T02:05:18.016Z,0
2017-03-11T02:06:27.509Z,0
2017-03-11T02:07:36.632Z,0
2017-03-11T02:08:45.804Z,0
2017-03-11T02:09:55.750Z,0
2017-03-11T02:11:05.684Z,0
2017-03-11T02:12:15.661Z,0
2017-03-11T02:13:25.213Z,0
2017-03-11T02:14:34.782Z,0
2017-03-11T02:15:44.359Z,0
2017-03-11T02:16:53.948Z,0
2017-03-11T02:18:03.512Z,0
2017-03-11T02:19:13.030Z,0
2017-03-11T02:20:22.582Z,0
2017-03-11T02:21:32.518Z,0
2017-03-11T02:22:42.486Z,0
2017-03-11T02:23:52.048Z,0
2017-03-11T02:25:01.177Z,0
2017-03-11T02:26:11.499Z,0
2017-03-11T02:27:21.367Z,0
2017-03-11T02:28:30.887Z,0
2017-03-11T02:29:40.823Z,0
2017-03-11T02:30:50.386Z,0
2017-03-11T02:31:59.940Z,0
2017-03-11T02:33:09.506Z,0
2017-03-11T02:34:19.442Z,0
2017-03-11T02:35:29.400Z,0
2017-03-11T02:36:39.351Z,0
2017-03-11T02:37:49.689Z,0
2017-03-11T02:38:58.865Z,0
2017-03-11T02:40:08.738Z,0
2017-03-11T02:41:17.921Z,0
2017-03-11T02:42:28.008Z,0
2017-03-11T02:43:37.188Z,0
2017-03-11T02:44:47.160Z,0
2017-03-11T02:45:57.488Z,0
2017-03-11T02:47:07.093Z,0
2017-03-11T02:48:16.289Z,0
2017-03-11T02:49:25.420Z,0
2017-03-11T02:50:35.800Z,0
2017-03-11T02:51:45.344Z,0
2017-03-11T02:52:54.519Z,0
2017-03-11T02:54:04.778Z,0
2017-03-11T02:55:14.724Z,0
2017-03-11T02:56:24.674Z,0
2017-03-11T02:57:34.627Z,0
2017-03-11T02:58:43.737Z,0
2017-03-11T02:59:53.307Z,0
2017-03-11T03:01:02.879Z,0
2017-03-11T03:02:12.812Z,0
2017-03-11T03:03:22.682Z,0
2017-03-11T03:04:31.858Z,0
2017-03-11T03:05:41.802Z,0
2017-03-11T03:06:50.962Z,0
2017-03-11T03:08:00.906Z,0
2017-03-11T03:09:10.858Z,0
2017-03-11T03:10:20.033Z,0
2017-03-11T03:11:30.301Z,0
2017-03-11T03:12:40.573Z,0
2017-03-11T03:13:50.027Z,0
2017-03-11T03:14:59.588Z,0
2017-03-11T03:16:09.174Z,0
2017-03-11T03:17:18.715Z,0
2017-03-11T03:18:27.541Z,0
2017-03-11T03:19:37.491Z,0
2017-03-11T03:20:47.434Z,0
2017-03-11T03:21:56.982Z,0
2017-03-11T03:23:15.828Z,0
2017-03-11T03:24:25.407Z,0
2017-03-11T03:25:34.963Z,0
2017-03-11T03:26:44.955Z,0
2017-03-11T03:27:54.166Z,0
2017-03-11T03:29:04.128Z,0
2017-03-11T03:30:12.843Z,0
2017-03-11T03:31:22.380Z,0
2017-03-11T03:32:31.862Z,0
2017-03-11T03:33:41.432Z,0
2017-03-11T03:34:51.005Z,0
2017-03-11T03:36:00.969Z,0
2017-03-11T03:37:10.926Z,0
2017-03-11T03:38:20.499Z,0
2017-03-11T03:39:30.054Z,0
2017-03-11T03:40:40.014Z,0
2017-03-11T03:41:49.592Z,0
2017-03-11T03:42:59.530Z,0
2017-03-11T03:44:09.495Z,0
2017-03-11T03:45:19.853Z,0
2017-03-11T03:46:29.804Z,0
2017-03-11T03:47:38.971Z,0
2017-03-11T03:48:49.235Z,0
2017-03-11T03:49:59.108Z,0
2017-03-11T03:51:09.071Z,0
2017-03-11T03:52:18.270Z,0
2017-03-11T03:53:27.825Z,0
2017-03-11T03:54:37.793Z,0
2017-03-11T03:55:48.121Z,0
2017-03-11T03:56:58.451Z,0
2017-03-11T03:58:07.567Z,0
2017-03-11T03:59:16.748Z,0
2017-03-11T04:00:26.309Z,0
2017-03-11T04:01:36.482Z,0
2017-03-11T04:02:46.039Z,0
2017-03-11T04:03:56.320Z,0
2017-03-11T04:05:06.657Z,0
2017-03-11T04:06:16.595Z,0
2017-03-11T04:07:27.318Z,0
2017-03-11T04:08:36.876Z,0
2017-03-11T04:09:46.371Z,0
2017-03-11T04:10:56.723Z,0
2017-03-11T04:12:07.058Z,0
2017-03-11T04:13:16.988Z,0
2017-03-11T04:14:26.933Z,0
2017-03-11T04:15:36.106Z,0
2017-03-11T04:16:46.444Z,0
2017-03-11T04:17:55.996Z,0
2017-03-11T04:19:05.940Z,0
2017-03-11T04:20:15.845Z,0
2017-03-11T04:21:26.012Z,0
2017-03-11T04:22:35.196Z,0
2017-03-11T04:23:45.066Z,0
2017-03-11T04:24:54.569Z,0
2017-03-11T04:26:04.136Z,0
2017-03-11T04:27:14.074Z,0
2017-03-11T04:28:24.027Z,0
2017-03-11T04:29:34.005Z,0
2017-03-11T04:30:43.184Z,0
2017-03-11T04:31:53.132Z,0
2017-03-11T04:33:03.079Z,0
2017-03-11T04:34:12.253Z,0
2017-03-11T04:35:21.809Z,0
2017-03-11T04:36:31.183Z,0
2017-03-11T04:37:41.537Z,0
2017-03-11T04:38:50.338Z,0
2017-03-11T04:39:59.515Z,0
2017-03-11T04:41:09.102Z,0
2017-03-11T04:42:18.666Z,0
2017-03-11T04:43:28.153Z,0
2017-03-11T04:44:37.724Z,0
2017-03-11T04:45:47.672Z,0
2017-03-11T04:46:58.021Z,0
2017-03-11T04:48:08.014Z,0
2017-03-11T04:49:17.995Z,0
2017-03-11T04:50:27.189Z,0
2017-03-11T04:51:37.141Z,0
2017-03-11T04:52:47.308Z,0
2017-03-11T04:53:56.861Z,0
2017-03-11T04:55:06.808Z,0
2017-03-11T04:56:16.359Z,0
2017-03-11T04:57:25.559Z,0
2017-03-11T04:58:34.340Z,0
2017-03-11T04:59:43.060Z,0
2017-03-11T05:00:51.851Z,0
2017-03-11T05:02:01.820Z,0
2017-03-11T05:03:11.784Z,0
2017-03-11T05:04:21.362Z,0
2017-03-11T05:05:31.234Z,0
2017-03-11T05:06:40.791Z,0
2017-03-11T05:07:50.206Z,0
2017-03-11T05:09:00.146Z,0
2017-03-11T05:10:10.464Z,0
2017-03-11T05:11:20.441Z,0
2017-03-11T05:12:30.375Z,0
2017-03-11T05:13:40.327Z,0
2017-03-11T05:14:50.269Z,0
2017-03-11T05:15:59.830Z,0
2017-03-11T05:17:09.382Z,0
2017-03-11T05:18:18.937Z,0
2017-03-11T05:19:28.521Z,0
2017-03-11T05:20:38.785Z,0
2017-03-11T05:21:48.390Z,0
2017-03-11T05:22:57.587Z,0
2017-03-11T05:24:07.083Z,0
2017-03-11T05:25:17.365Z,0
2017-03-11T05:26:26.151Z,0
2017-03-11T05:27:34.883Z,0
2017-03-11T05:28:44.826Z,0
2017-03-11T05:29:55.182Z,0
2017-03-11T05:31:05.532Z,0
2017-03-11T05:32:15.472Z,0
2017-03-11T05:33:24.229Z,0
2017-03-11T05:34:34.135Z,0
2017-03-11T05:35:43.719Z,0
2017-03-11T05:36:53.704Z,0
2017-03-11T05:38:03.653Z,0
2017-03-11T05:39:13.647Z,0
2017-03-11T05:40:23.134Z,0
2017-03-11T05:41:33.080Z,0
2017-03-11T05:42:43.018Z,0
2017-03-11T05:43:52.906Z,0
2017-03-11T05:45:03.230Z,0
2017-03-11T05:46:13.195Z,0
2017-03-11T05:47:22.386Z,0
2017-03-11T05:48:31.961Z,0
2017-03-11T05:49:41.941Z,0
2017-03-11T05:50:52.294Z,0
2017-03-11T05:52:02.263Z,0
2017-03-11T05:53:11.769Z,0
2017-03-11T05:54:21.338Z,0
2017-03-11T05:55:30.820Z,0
2017-03-11T05:56:40.805Z,0
2017-03-11T05:57:50.031Z,0
2017-03-11T05:58:59.589Z,0
2017-03-11T06:00:09.154Z,0
2017-03-11T06:01:19.085Z,0
2017-03-11T06:02:28.893Z,0
2017-03-11T06:03:38.064Z,0
2017-03-11T06:04:46.854Z,0
2017-03-11T06:05:57.121Z,0
2017-03-11T06:07:06.672Z,0
2017-03-11T06:08:15.837Z,0
2017-03-11T06:09:25.037Z,0
2017-03-11T06:10:34.625Z,0
2017-03-11T06:11:43.790Z,5
2017-03-11T06:12:53.374Z,5
2017-03-11T06:14:03.707Z,5
2017-03-11T06:15:13.664Z,5
2017-03-11T06:16:23.224Z,5
2017-03-11T06:17:32.787Z,5
2017-03-11T06:18:41.957Z,5
2017-03-11T06:19:51.895Z,5
2017-03-11T06:21:02.232Z,5
2017-03-11T06:22:12.194Z,5
2017-03-11T06:23:22.522Z,5
2017-03-11T06:24:32.476Z,5
2017-03-11T06:25:42.418Z,5
2017-03-11T06:26:52.559Z,5
2017-03-11T06:28:03.140Z,5
2017-03-11T06:29:11.900Z,10
2017-03-11T06:30:21.020Z,10
2017-03-11T06:31:30.907Z,10
2017-03-11T06:32:40.079Z,10
2017-03-11T06:33:49.657Z,10
2017-03-11T06:34:59.443Z,10
2017-03-11T06:36:08.998Z,10
2017-03-11T06:37:18.878Z,10
2017-03-11T06:38:28.387Z,10
2017-03-11T06:39:37.965Z,10
2017-03-11T06:40:47.142Z,10
2017-03-11T06:41:56.723Z,15
2017-03-11T06:43:06.681Z,15
2017-03-11T06:44:16.249Z,15
2017-03-11T06:45:26.197Z,15
2017-03-11T06:46:35.387Z,15
2017-03-11T06:47:44.958Z,20
2017-03-11T06:48:55.836Z,20
2017-03-11T06:50:05.025Z,20
2017-03-11T06:51:14.590Z,25
2017-03-11T06:52:24.555Z,25
2017-03-11T06:53:34.053Z,30
2017-03-11T06:54:43.639Z,25
2017-03-11T06:55:53.574Z,20
2017-03-11T06:57:03.121Z,25
2017-03-11T06:58:12.707Z,25
2017-03-11T06:59:21.894Z,35
2017-03-11T07:00:32.225Z,30
2017-03-11T07:01:42.170Z,30
2017-03-11T07:02:51.753Z,25
2017-03-11T07:04:01.701Z,35
2017-03-11T07:05:11.634Z,45
2017-03-11T07:06:21.216Z,50
2017-03-11T07:07:31.159Z,45
2017-03-11T07:08:40.356Z,65
2017-03-11T07:09:50.291Z,85
2017-03-11T07:10:59.792Z,110
2017-03-11T07:12:08.606Z,110
2017-03-11T07:13:18.197Z,110
2017-03-11T07:14:27.690Z,165
2017-03-11T07:15:37.250Z,195
2017-03-11T07:16:46.480Z,210
2017-03-11T07:17:56.044Z,220
2017-03-11T07:19:06.398Z,225
2017-03-11T07:20:16.740Z,240
2017-03-11T07:21:26.311Z,235
2017-03-11T07:22:36.512Z,250
2017-03-11T07:23:45.688Z,255
2017-03-11T07:24:55.254Z,255
2017-03-11T07:26:04.421Z,260
2017-03-11T07:27:15.150Z,260
2017-03-11T07:28:24.268Z,270
2017-03-11T07:29:34.160Z,205
2017-03-11T07:30:44.120Z,115
2017-03-11T07:31:53.675Z,105
2017-03-11T07:33:03.256Z,105
2017-03-11T07:34:13.612Z,105
2017-03-11T07:35:23.380Z,105
2017-03-11T07:36:33.573Z,105
2017-03-11T07:37:43.543Z,105
2017-03-11T07:38:53.512Z,105
2017-03-11T07:40:03.019Z,105
2017-03-11T07:41:12.954Z,110
2017-03-11T07:42:22.062Z,110
2017-03-11T07:43:30.863Z,110
2017-03-11T07:44:39.686Z,110
2017-03-11T07:45:49.059Z,110
2017-03-11T07:46:57.800Z,115
2017-03-11T07:48:08.135Z,115
2017-03-11T07:49:18.076Z,115
2017-03-11T07:50:27.258Z,120
2017-03-11T07:51:36.810Z,120
2017-03-11T07:52:47.018Z,120
2017-03-11T07:53:56.994Z,125
2017-03-11T07:55:06.560Z,125
2017-03-11T07:56:15.690Z,125
2017-03-11T07:57:24.864Z,125
2017-03-11T07:58:34.431Z,125
2017-03-11T07:59:43.984Z,125
2017-03-11T08:00:53.534Z,125
2017-03-11T08:02:03.093Z,105
2017-03-11T08:03:13.031Z,120
2017-03-11T08:04:22.605Z,125
2017-03-11T08:05:31.785Z,115
2017-03-11T08:06:41.359Z,125
2017-03-11T08:07:51.903Z,125
2017-03-11T08:09:01.771Z,125
2017-03-11T08:10:10.875Z,125
2017-03-11T08:11:20.454Z,125
2017-03-11T08:12:30.802Z,125
2017-03-11T08:13:40.768Z,125
2017-03-11T08:14:50.356Z,130
2017-03-11T08:16:00.265Z,125
2017-03-11T08:17:09.081Z,130
2017-03-11T08:18:18.895Z,130
2017-03-11T08:19:28.093Z,130
2017-03-11T08:20:37.228Z,130
2017-03-11T08:21:46.799Z,130
2017-03-11T08:22:56.384Z,130
2017-03-11T08:24:06.741Z,125
2017-03-11T08:25:15.912Z,130
2017-03-11T08:26:25.878Z,130
2017-03-11T08:27:35.062Z,130
2017-03-11T08:28:45.021Z,130
2017-03-11T08:29:54.242Z,130
2017-03-11T08:31:04.587Z,130
2017-03-11T08:32:13.700Z,130
2017-03-11T08:33:22.863Z,130
2017-03-11T08:34:33.542Z,130
2017-03-11T08:35:43.056Z,130
2017-03-11T08:36:53.403Z,130
2017-03-11T08:38:03.738Z,130
2017-03-11T08:39:13.633Z,130
2017-03-11T08:40:22.431Z,130
2017-03-11T08:41:32.400Z,130
2017-03-11T08:42:42.750Z,140
2017-03-11T08:43:52.730Z,140
2017-03-11T08:45:02.296Z,140
2017-03-11T08:46:11.853Z,140
2017-03-11T08:47:22.189Z,145
2017-03-11T08:48:31.384Z,145
2017-03-11T08:49:41.357Z,135
2017-03-11T08:50:51.302Z,135
2017-03-11T08:52:00.478Z,140
2017-03-11T08:53:10.466Z,140
2017-03-11T08:54:20.428Z,150
2017-03-11T08:55:29.982Z,140
2017-03-11T08:56:39.950Z,125
2017-03-11T08:57:49.124Z,120
2017-03-11T08:58:59.072Z,130
2017-03-11T09:00:08.645Z,140
2017-03-11T09:01:18.161Z,145
2017-03-11T09:02:27.719Z,145
2017-03-11T09:03:36.927Z,150
2017-03-11T09:04:46.909Z,150
2017-03-11T09:05:56.485Z,175
2017-03-11T09:07:06.461Z,185
2017-03-11T09:08:15.246Z,205
2017-03-11T09:09:24.814Z,245
2017-03-11T09:10:34.237Z,620
2017-03-11T09:11:43.781Z,790
2017-03-11T09:12:53.729Z,865
2017-03-11T09:14:03.286Z,710
2017-03-11T09:15:12.788Z,885
2017-03-11T09:16:23.132Z,825
2017-03-11T09:17:32.318Z,930
2017-03-11T09:18:41.429Z,970
2017-03-11T09:19:51.037Z,755
2017-03-11T09:21:01.673Z,735
2017-03-11T09:22:11.624Z,550
2017-03-11T09:23:21.221Z,325
2017-03-11T09:24:30.787Z,435
2017-03-11T09:25:39.953Z,775
2017-03-11T09:26:50.327Z,960
2017-03-11T09:28:00.295Z,955
2017-03-11T09:29:09.450Z,1030
2017-03-11T09:30:19.038Z,915
2017-03-11T09:31:28.471Z,905
2017-03-11T09:32:38.427Z,1015
2017-03-11T09:33:48.516Z,1035
2017-03-11T09:34:58.851Z,760
2017-03-11T09:36:08.343Z,335
2017-03-11T09:37:17.454Z,255
2017-03-11T09:38:26.252Z,255
2017-03-11T09:39:36.811Z,260
2017-03-11T09:40:45.919Z,340
2017-03-11T09:41:56.489Z,700
2017-03-11T09:43:05.683Z,980
2017-03-11T09:44:15.655Z,1035
2017-03-11T09:45:25.241Z,1055
2017-03-11T09:46:34.037Z,990
2017-03-11T09:47:43.204Z,1085
2017-03-11T09:48:53.533Z,1095
2017-03-11T09:50:03.063Z,1010
2017-03-11T09:51:12.954Z,1105
2017-03-11T09:52:22.155Z,935
2017-03-11T09:53:31.331Z,915
2017-03-11T09:54:40.904Z,825
2017-03-11T09:55:50.836Z,935
2017-03-11T09:57:00.056Z,880
2017-03-11T09:58:09.999Z,935
2017-03-11T09:59:19.113Z,1010
2017-03-11T10:00:29.082Z,1055
2017-03-11T10:01:38.272Z,1105
2017-03-11T10:02:48.097Z,1065
2017-03-11T10:03:57.284Z,1065
2017-03-11T10:05:07.239Z,1025
2017-03-11T10:06:16.042Z,1020
2017-03-11T10:07:25.611Z,1005
2017-03-11T10:08:35.930Z,990
2017-03-11T10:09:44.661Z,935
2017-03-11T10:10:54.613Z,930
2017-03-11T10:12:04.549Z,835
2017-03-11T10:13:14.508Z,725
2017-03-11T10:14:24.863Z,605
2017-03-11T10:15:34.046Z,525
2017-03-11T10:16:43.252Z,415
2017-03-11T10:17:53.196Z,390
2017-03-11T10:19:03.356Z,405
2017-03-11T10:20:13.318Z,445
2017-03-11T10:21:22.893Z,455
2017-03-11T10:22:33.228Z,480
2017-03-11T10:23:43.598Z,475
2017-03-11T10:24:53.544Z,365
2017-03-11T10:26:03.497Z,325
2017-03-11T10:27:13.059Z,300
2017-03-11T10:28:22.636Z,300
2017-03-11T10:29:32.448Z,270
2017-03-11T10:30:42.012Z,280
2017-03-11T10:31:51.189Z,295
2017-03-11T10:33:00.405Z,305
2017-03-11T10:34:10.351Z,295
2017-03-11T10:35:19.920Z,305
2017-03-11T10:36:30.281Z,325
2017-03-11T10:37:39.086Z,300
2017-03-11T10:38:48.620Z,290
2017-03-11T10:39:57.795Z,280
2017-03-11T10:41:07.303Z,300
2017-03-11T10:42:16.882Z,295
2017-03-11T10:43:27.223Z,290
2017-03-11T10:44:37.112Z,285
2017-03-11T10:45:46.280Z,270
2017-03-11T10:46:55.473Z,265
2017-03-11T10:48:05.063Z,265
2017-03-11T10:49:14.172Z,260
2017-03-11T10:50:23.225Z,250
2017-03-11T10:51:32.053Z,255
2017-03-11T10:52:42.407Z,270
2017-03-11T10:53:52.751Z,275
2017-03-11T10:55:02.302Z,270
2017-03-11T10:56:11.486Z,290
2017-03-11T10:57:20.666Z,295
2017-03-11T10:58:30.627Z,270
2017-03-11T10:59:39.825Z,270
2017-03-11T11:00:49.643Z,285
2017-03-11T11:01:58.837Z,285
2017-03-11T11:03:08.409Z,285
2017-03-11T11:04:18.740Z,275
2017-03-11T11:05:28.682Z,275
2017-03-11T11:06:38.659Z,280
2017-03-11T11:07:48.206Z,305
2017-03-11T11:08:58.153Z,300
2017-03-11T11:10:08.101Z,400
2017-03-11T11:11:18.424Z,660
2017-03-11T11:12:28.371Z,775
2017-03-11T11:13:38.316Z,805
2017-03-11T11:14:47.911Z,845
2017-03-11T11:15:58.295Z,840
2017-03-11T11:17:08.679Z,780
2017-03-11T11:18:18.275Z,580
2017-03-11T11:19:27.767Z,550
2017-03-11T11:20:37.366Z,605
2017-03-11T11:21:47.567Z,655
2017-03-11T11:22:57.153Z,625
2017-03-11T11:24:06.823Z,685
2017-03-11T11:25:16.418Z,750
2017-03-11T11:26:26.755Z,695
2017-03-11T11:27:37.106Z,750
2017-03-11T11:28:47.046Z,700
2017-03-11T11:29:57.324Z,710
2017-03-11T11:31:07.279Z,715
2017-03-11T11:32:17.217Z,710
2017-03-11T11:33:27.540Z,700
2017-03-11T11:34:37.485Z,695
2017-03-11T11:35:47.447Z,605
2017-03-11T11:36:57.807Z,520
2017-03-11T11:38:07.370Z,550
2017-03-11T11:39:17.159Z,385
2017-03-11T11:40:26.395Z,475
2017-03-11T11:41:35.172Z,340
2017-03-11T11:42:45.401Z,380
2017-03-11T11:43:55.332Z,320
2017-03-11T11:45:04.139Z,310
2017-03-11T11:46:13.322Z,340
2017-03-11T11:47:23.280Z,315
2017-03-11T11:48:32.826Z,305
2017-03-11T11:49:42.381Z,275
2017-03-11T11:50:52.730Z,265
2017-03-11T11:52:02.998Z,265
2017-03-11T11:53:12.770Z,265
2017-03-11T11:54:22.331Z,265
2017-03-11T11:55:32.012Z,275
2017-03-11T11:56:41.540Z,270
2017-03-11T11:57:51.443Z,265
2017-03-11T11:59:01.797Z,255
2017-03-11T12:00:12.053Z,250
2017-03-11T12:01:22.003Z,245
2017-03-11T12:02:31.566Z,245
2017-03-11T12:03:40.743Z,225
2017-03-11T12:04:50.328Z,205
2017-03-11T12:06:00.257Z,200
2017-03-11T12:07:09.835Z,200
2017-03-11T12:08:18.627Z,185
2017-03-11T12:09:28.610Z,170
2017-03-11T12:10:37.786Z,150
2017-03-11T12:11:46.953Z,145
2017-03-11T12:12:56.877Z,140
2017-03-11T12:14:06.852Z,140
2017-03-11T12:15:15.635Z,135
2017-03-11T12:16:25.135Z,135
2017-03-11T12:17:34.303Z,135
2017-03-11T12:18:43.872Z,130
2017-03-11T12:19:52.995Z,125
2017-03-11T12:21:01.840Z,125
2017-03-11T12:22:10.960Z,125
2017-03-11T12:23:20.950Z,125
2017-03-11T12:24:31.664Z,120
2017-03-11T12:25:41.990Z,120
2017-03-11T12:26:51.589Z,120
2017-03-11T12:28:01.157Z,115
2017-03-11T12:29:10.740Z,115
2017-03-11T12:30:20.701Z,110
2017-03-11T12:31:30.629Z,110
2017-03-11T12:32:40.245Z,105
2017-03-11T12:33:50.202Z,105
2017-03-11T12:34:59.374Z,105
2017-03-11T12:36:09.195Z,105
2017-03-11T12:37:19.470Z,105
2017-03-11T12:38:28.645Z,100
2017-03-11T12:39:38.543Z,100
2017-03-11T12:40:47.740Z,100
2017-03-11T12:41:57.307Z,95
2017-03-11T12:43:06.501Z,95
2017-03-11T12:44:16.029Z,95
2017-03-11T12:45:25.583Z,95
2017-03-11T12:46:35.077Z,95
2017-03-11T12:47:44.653Z,95
2017-03-11T12:48:53.788Z,95
2017-03-11T12:50:03.741Z,95
2017-03-11T12:51:14.076Z,95
2017-03-11T12:52:23.233Z,95
2017-03-11T12:53:33.569Z,90
2017-03-11T12:54:43.151Z,90
2017-03-11T12:55:53.030Z,85
2017-03-11T12:57:02.890Z,90
2017-03-11T12:58:12.044Z,85
2017-03-11T12:59:21.610Z,85
2017-03-11T13:00:32.310Z,85
2017-03-11T13:01:41.120Z,80
2017-03-11T13:02:51.008Z,80
2017-03-11T13:04:00.181Z,80
2017-03-11T13:05:09.351Z,80
2017-03-11T13:06:18.928Z,75
2017-03-11T13:07:29.885Z,75
2017-03-11T13:08:40.608Z,75
2017-03-11T13:09:50.163Z,75
2017-03-11T13:10:59.342Z,75
2017-03-11T13:12:08.556Z,80
2017-03-11T13:13:18.115Z,80
2017-03-11T13:14:28.092Z,75
2017-03-11T13:15:37.580Z,75
2017-03-11T13:16:47.462Z,75
2017-03-11T13:17:56.640Z,70
2017-03-11T13:19:06.580Z,75
2017-03-11T13:20:16.523Z,75
2017-03-11T13:21:25.687Z,75
2017-03-11T13:22:35.093Z,75
2017-03-11T13:23:43.811Z,75
2017-03-11T13:24:53.461Z,70
2017-03-11T13:26:03.834Z,70
2017-03-11T13:27:13.355Z,70
2017-03-11T13:28:22.559Z,70
2017-03-11T13:29:32.501Z,65
2017-03-11T13:30:42.775Z,75
2017-03-11T13:31:52.332Z,70
2017-03-11T13:33:02.448Z,70
2017-03-11T13:34:11.626Z,75
2017-03-11T13:35:21.577Z,75
2017-03-11T13:36:31.168Z,75
2017-03-11T13:37:40.751Z,80
2017-03-11T13:38:50.321Z,80
2017-03-11T13:39:59.795Z,80
2017-03-11T13:41:09.369Z,80
2017-03-11T13:42:19.357Z,80
2017-03-11T13:43:28.914Z,80
2017-03-11T13:44:38.023Z,75
2017-03-11T13:45:48.291Z,75
2017-03-11T13:46:59.001Z,75
2017-03-11T13:48:08.946Z,75
2017-03-11T13:49:18.461Z,75
2017-03-11T13:50:28.028Z,75
2017-03-11T13:51:37.226Z,70
2017-03-11T13:52:46.413Z,75
2017-03-11T13:53:56.766Z,70
2017-03-11T13:55:06.724Z,70
2017-03-11T13:56:16.309Z,70
2017-03-11T13:57:25.905Z,70
2017-03-11T13:58:35.707Z,70
2017-03-11T13:59:45.285Z,70
2017-03-11T14:00:54.959Z,70
2017-03-11T14:02:03.754Z,65
2017-03-11T14:03:13.699Z,65
2017-03-11T14:04:23.266Z,65
2017-03-11T14:05:32.462Z,60
2017-03-11T14:06:41.988Z,55
2017-03-11T14:07:51.475Z,55
2017-03-11T14:09:00.529Z,55
2017-03-11T14:10:09.725Z,55
2017-03-11T14:11:19.700Z,60
2017-03-11T14:12:30.059Z,60
2017-03-11T14:13:40.392Z,60
2017-03-11T14:14:49.948Z,60
2017-03-11T14:15:59.118Z,60
2017-03-11T14:17:09.469Z,65
2017-03-11T14:18:20.202Z,65
2017-03-11T14:19:30.530Z,65
2017-03-11T14:20:40.332Z,65
2017-03-11T14:21:50.218Z,65
2017-03-11T14:22:59.398Z,60
2017-03-11T14:24:09.738Z,60
2017-03-11T14:25:19.682Z,55
2017-03-11T14:26:29.568Z,55
2017-03-11T14:27:39.506Z,55
2017-03-11T14:28:49.071Z,55
2017-03-11T14:29:59.026Z,50
2017-03-11T14:31:08.201Z,50
2017-03-11T14:32:18.139Z,50
2017-03-11T14:33:27.636Z,50
2017-03-11T14:34:37.190Z,50
2017-03-11T14:35:46.357Z,50
2017-03-11T14:36:55.552Z,50
2017-03-11T14:38:05.887Z,45
2017-03-11T14:39:15.485Z,45
2017-03-11T14:40:25.445Z,40
2017-03-11T14:41:35.713Z,40
2017-03-11T14:42:46.072Z,40
2017-03-11T14:43:55.852Z,40
2017-03-11T14:45:05.449Z,40
2017-03-11T14:46:15.428Z,35
2017-03-11T14:47:25.398Z,35
2017-03-11T14:48:35.344Z,35
2017-03-11T14:49:45.238Z,30
2017-03-11T14:50:54.437Z,30
2017-03-11T14:52:03.809Z,30
2017-03-11T14:53:13.763Z,30
2017-03-11T14:54:24.110Z,30
2017-03-11T14:55:34.080Z,25
2017-03-11T14:56:43.704Z,25
2017-03-11T14:57:54.030Z,25
2017-03-11T14:59:03.234Z,30
2017-03-11T15:00:12.425Z,30
2017-03-11T15:01:22.369Z,30
2017-03-11T15:02:32.204Z,30
2017-03-11T15:03:41.383Z,25
2017-03-11T15:04:50.117Z,25
2017-03-11T15:05:59.621Z,25
2017-03-11T15:07:09.188Z,25
2017-03-11T15:08:18.753Z,25
2017-03-11T15:09:29.466Z,25
2017-03-11T15:10:39.427Z,25
2017-03-11T15:11:49.392Z,25
2017-03-11T15:12:59.293Z,25
2017-03-11T15:14:08.458Z,25
2017-03-11T15:15:17.649Z,25
2017-03-11T15:16:28.359Z,25
2017-03-11T15:17:37.931Z,25
2017-03-11T15:18:47.134Z,30
2017-03-11T15:19:56.712Z,30
2017-03-11T15:21:05.920Z,30
2017-03-11T15:22:15.036Z,30
2017-03-11T15:23:24.419Z,30
2017-03-11T15:24:34.391Z,30
2017-03-11T15:25:44.704Z,30
2017-03-11T15:26:54.662Z,30
2017-03-11T15:28:04.629Z,25
2017-03-11T15:29:14.191Z,25
2017-03-11T15:30:24.525Z,25
2017-03-11T15:31:33.682Z,25
2017-03-11T15:32:43.889Z,20
2017-03-11T15:33:54.024Z,20
2017-03-11T15:35:04.342Z,25
2017-03-11T15:36:14.686Z,25
2017-03-11T15:37:24.946Z,25
2017-03-11T15:38:34.823Z,25
2017-03-11T15:39:44.321Z,20
2017-03-11T15:40:54.530Z,20
2017-03-11T15:42:04.497Z,20
2017-03-11T15:43:14.466Z,20
2017-03-11T15:44:23.576Z,20
2017-03-11T15:45:33.145Z,15
2017-03-11T15:46:43.479Z,15
2017-03-11T15:47:52.593Z,15
2017-03-11T15:49:02.547Z,15
2017-03-11T15:50:12.506Z,15
2017-03-11T15:51:21.301Z,15
2017-03-11T15:52:30.479Z,10
2017-03-11T15:53:39.270Z,10
2017-03-11T15:54:48.346Z,10
2017-03-11T15:55:57.549Z,10
2017-03-11T15:57:07.122Z,10
2017-03-11T15:59:24.792Z,10
2017-03-11T16:00:34.768Z,10
2017-03-11T16:01:43.944Z,10
2017-03-11T16:02:53.498Z,10
2017-03-11T16:04:03.445Z,10
2017-03-11T16:05:13.396Z,10
2017-03-11T16:06:24.101Z,10
2017-03-11T16:07:33.262Z,10
2017-03-11T16:08:42.488Z,10
2017-03-11T16:09:52.839Z,10
2017-03-11T16:11:02.803Z,10
2017-03-11T16:12:12.382Z,10
2017-03-11T16:13:21.966Z,10
2017-03-11T16:14:31.533Z,10
2017-03-11T16:15:41.862Z,10
2017-03-11T16:16:51.826Z,10
2017-03-11T16:18:02.624Z,10
2017-03-11T16:19:12.956Z,10
2017-03-11T16:20:22.932Z,5
2017-03-11T16:21:33.282Z,5
2017-03-11T16:22:44.046Z,5
2017-03-11T16:23:54.397Z,5
2017-03-11T16:25:03.974Z,5
2017-03-11T16:26:14.253Z,5
2017-03-11T16:27:24.222Z,5
2017-03-11T16:28:34.173Z,5
2017-03-11T16:29:44.875Z,5
2017-03-11T16:30:54.840Z,5
2017-03-11T16:32:05.181Z,5
2017-03-11T16:33:15.460Z,5
2017-03-11T16:34:25.404Z,5
2017-03-11T16:35:36.076Z,5
2017-03-11T16:36:45.644Z,5
2017-03-11T16:37:55.968Z,5